createdAt,value
2023-03-26T00:01:40.680Z,9.14
2023-03-26T00:04:09.273Z,9.03
2023-03-26T00:06:40.052Z,8.34
2023-03-26T00:09:10.171Z,8.23
2023-03-26T00:11:38.944Z,8.20
2023-03-26T00:14:07.304Z,8.01
2023-03-26T00:16:35.837Z,7.76
2023-03-26T00:19:05.605Z,7.71
2023-03-26T00:21:35.250Z,7.88
2023-03-26T00:24:05.628Z,8.09
2023-03-26T00:26:34.555Z,8.31
2023-03-26T00:29:04.180Z,8.47
2023-03-26T00:31:33.171Z,8.23
2023-03-26T00:34:03.800Z,7.73
2023-03-26T00:36:36.036Z,7.70
2023-03-26T00:39:06.275Z,7.67
2023-03-26T00:41:37.148Z,7.68
2023-03-26T00:44:05.749Z,7.74
2023-03-26T00:46:34.192Z,7.80
2023-03-26T00:49:04.078Z,7.89
2023-03-26T00:51:35.114Z,7.98
2023-03-26T00:54:03.552Z,8.18
2023-03-26T00:56:31.981Z,8.34
2023-03-26T00:59:00.909Z,8.36
2023-03-26T01:01:30.675Z,8.43
2023-03-26T01:04:20.305Z,8.56
2023-03-26T01:06:50.963Z,8.67
2023-03-26T01:09:22.177Z,8.75
2023-03-26T01:11:51.447Z,8.89
2023-03-26T01:14:21.897Z,8.94
2023-03-26T01:16:54.039Z,8.94
2023-03-26T01:19:31.119Z,8.98
2023-03-26T01:22:01.359Z,9.04
2023-03-26T01:24:31.086Z,9.01
2023-03-26T01:27:25.997Z,8.99
2023-03-26T01:29:56.508Z,9.03
2023-03-26T01:32:42.128Z,9.19
2023-03-26T01:35:22.456Z,9.18
2023-03-26T01:38:10.594Z,9.20
2023-03-26T01:40:47.043Z,9.27
2023-03-26T01:43:23.802Z,9.26
2023-03-26T01:45:53.958Z,9.18
2023-03-26T01:48:22.473Z,9.27
2023-03-26T01:50:53.710Z,9.35
2023-03-26T01:53:22.044Z,9.40
2023-03-26T01:56:04.033Z,9.43
2023-03-26T01:58:38.484Z,9.46
2023-03-26T02:01:19.725Z,9.46
2023-03-26T02:03:54.801Z,9.36
2023-03-26T02:06:34.482Z,9.33
2023-03-26T02:09:07.185Z,9.32
2023-03-26T02:11:38.514Z,9.25
2023-03-26T02:14:08.294Z,9.14
2023-03-26T02:16:36.772Z,9.10
2023-03-26T02:19:06.015Z,9.08
2023-03-26T02:21:34.413Z,9.15
2023-03-26T02:24:04.264Z,9.19
2023-03-26T02:26:34.811Z,9.30
2023-03-26T02:29:04.834Z,9.45
2023-03-26T02:31:33.152Z,9.47
2023-03-26T02:34:01.494Z,9.48
2023-03-26T02:36:29.886Z,9.45
2023-03-26T02:39:00.518Z,9.67
2023-03-26T02:41:28.786Z,9.83
2023-03-26T02:43:57.166Z,9.80
2023-03-26T02:46:26.950Z,9.76
2023-03-26T02:48:55.333Z,9.71
2023-03-26T02:51:23.792Z,9.70
2023-03-26T02:53:53.832Z,9.70
2023-03-26T02:56:22.167Z,9.72
2023-03-26T02:58:50.584Z,9.75
2023-03-26T03:01:18.904Z,9.75
2023-03-26T03:03:48.760Z,9.82
2023-03-26T03:06:18.985Z,9.87
2023-03-26T03:08:47.783Z,9.87
2023-03-26T03:11:18.436Z,9.80
2023-03-26T03:13:46.988Z,9.83
2023-03-26T03:16:15.595Z,9.91
2023-03-26T03:18:43.986Z,9.97
2023-03-26T03:21:13.689Z,9.88
2023-03-26T03:23:42.189Z,9.78
2023-03-26T03:26:15.680Z,9.72
2023-03-26T03:28:45.174Z,9.84
2023-03-26T03:31:13.633Z,9.91
2023-03-26T03:33:43.166Z,9.99
2023-03-26T03:36:21.015Z,10.03
2023-03-26T03:38:51.603Z,10.24
2023-03-26T03:41:19.838Z,10.35
2023-03-26T03:43:48.365Z,10.45
2023-03-26T03:46:16.765Z,10.61
2023-03-26T03:48:49.712Z,10.65
2023-03-26T03:51:19.804Z,10.67
2023-03-26T03:53:49.400Z,10.69
2023-03-26T03:56:19.358Z,10.70
2023-03-26T03:58:47.756Z,10.72
2023-03-26T04:01:17.095Z,10.65
2023-03-26T04:03:46.422Z,10.55
2023-03-26T04:06:19.137Z,10.63
2023-03-26T04:08:48.980Z,10.50
2023-03-26T04:11:17.750Z,10.41
2023-03-26T04:13:46.154Z,10.24
2023-03-26T04:16:14.460Z,10.20
2023-03-26T04:18:42.951Z,10.14
2023-03-26T04:21:12.774Z,10.23
2023-03-26T04:23:42.650Z,10.34
2023-03-26T04:26:18.682Z,10.45
2023-03-26T04:28:50.562Z,10.61
2023-03-26T04:31:24.927Z,10.67
2023-03-26T04:33:56.102Z,10.54
2023-03-26T04:36:28.637Z,10.57
2023-03-26T04:39:02.525Z,10.51
2023-03-26T04:41:32.500Z,10.52
2023-03-26T04:44:02.115Z,10.57
2023-03-26T04:46:33.716Z,10.50
2023-03-26T04:49:02.691Z,10.49
2023-03-26T04:51:39.332Z,10.57
2023-03-26T04:54:08.236Z,10.56
2023-03-26T04:56:45.542Z,10.60
2023-03-26T04:59:16.313Z,10.70
2023-03-26T05:01:45.912Z,10.70
2023-03-26T05:04:17.644Z,10.72
2023-03-26T05:06:47.186Z,10.75
2023-03-26T05:09:15.825Z,10.73
2023-03-26T05:11:45.590Z,10.73
2023-03-26T05:14:13.953Z,10.80
2023-03-26T05:16:42.584Z,10.85
2023-03-26T05:19:11.021Z,10.87
2023-03-26T05:21:39.533Z,10.82
2023-03-26T05:24:08.335Z,10.92
2023-03-26T05:26:36.977Z,10.97
2023-03-26T05:29:06.809Z,10.98
2023-03-26T05:31:35.139Z,11.01
2023-03-26T05:34:03.699Z,11.32
2023-03-26T05:36:32.032Z,11.58
2023-03-26T05:39:00.336Z,11.35
2023-03-26T05:41:28.605Z,11.49
2023-03-26T05:43:57.333Z,11.69
2023-03-26T05:46:27.417Z,11.72
2023-03-26T05:48:55.952Z,11.66
2023-03-26T05:51:24.635Z,11.89
2023-03-26T05:53:53.077Z,11.86
2023-03-26T05:56:21.538Z,11.91
2023-03-26T05:58:51.477Z,12.47
2023-03-26T06:01:20.842Z,12.63
2023-03-26T06:03:51.876Z,12.91
2023-03-26T06:06:21.818Z,13.05
2023-03-26T06:09:01.910Z,12.65
2023-03-26T06:11:32.567Z,12.49
2023-03-26T06:14:01.126Z,12.31
2023-03-26T06:16:29.629Z,12.17
2023-03-26T06:18:59.685Z,12.10
2023-03-26T06:21:28.485Z,11.91
2023-03-26T06:23:57.173Z,11.95
2023-03-26T06:26:25.901Z,11.91
2023-03-26T06:28:54.153Z,12.05
2023-03-26T06:31:22.440Z,12.24
2023-03-26T06:33:51.409Z,12.47
2023-03-26T06:36:21.075Z,12.93
2023-03-26T06:38:49.404Z,13.17
2023-03-26T06:41:17.810Z,13.17
2023-03-26T06:43:46.380Z,12.54
2023-03-26T06:46:14.810Z,12.48
2023-03-26T06:48:43.247Z,12.31
2023-03-26T06:51:11.968Z,12.22
2023-03-26T06:53:41.672Z,12.20
2023-03-26T06:56:11.131Z,12.16
2023-03-26T06:58:39.409Z,12.22
2023-03-26T07:01:08.434Z,12.45
2023-03-26T07:03:36.763Z,12.68
2023-03-26T07:06:05.313Z,12.76
2023-03-26T07:08:33.634Z,12.83
2023-03-26T07:11:03.304Z,12.65
2023-03-26T07:13:31.601Z,12.52
2023-03-26T07:16:00.051Z,12.51
2023-03-26T07:18:28.510Z,12.51
2023-03-26T07:20:57.791Z,12.62
2023-03-26T07:23:26.743Z,12.70
2023-03-26T07:25:56.069Z,12.81
2023-03-26T07:28:34.552Z,12.95
2023-03-26T07:31:18.094Z,13.27
2023-03-26T07:33:55.075Z,13.47
2023-03-26T07:36:30.110Z,13.43
2023-03-26T07:39:13.541Z,13.65
2023-03-26T07:41:48.164Z,13.49
2023-03-26T07:44:52.186Z,13.74
2023-03-26T07:47:29.109Z,13.91
2023-03-26T07:49:58.736Z,14.16
2023-03-26T07:52:27.785Z,14.10
2023-03-26T07:54:56.567Z,13.85
2023-03-26T07:57:39.220Z,13.87
2023-03-26T08:00:19.183Z,13.83
2023-03-26T08:03:13.334Z,13.80
2023-03-26T08:05:48.061Z,13.73
2023-03-26T08:08:25.556Z,13.74
2023-03-26T08:11:08.163Z,13.85
2023-03-26T08:13:56.999Z,14.12
2023-03-26T08:16:33.017Z,14.19
2023-03-26T08:19:08.534Z,14.34
2023-03-26T08:21:43.225Z,14.40
2023-03-26T08:24:20.132Z,14.44
2023-03-26T08:26:57.610Z,14.39
2023-03-26T08:29:35.549Z,14.54
2023-03-26T08:32:06.095Z,14.84
2023-03-26T08:34:34.493Z,14.88
2023-03-26T08:37:02.965Z,14.92
2023-03-26T08:39:31.662Z,14.93
2023-03-26T08:42:56.072Z,14.90
2023-03-26T08:46:14.214Z,14.89
2023-03-26T08:49:23.878Z,15.31
2023-03-26T08:52:27.452Z,15.50
2023-03-26T08:55:16.760Z,15.56
2023-03-26T08:58:39.093Z,15.70
2023-03-26T09:01:33.385Z,15.87
2023-03-26T09:04:28.543Z,15.82
2023-03-26T09:07:31.438Z,15.70
2023-03-26T09:10:28.281Z,15.61
2023-03-26T09:13:22.715Z,15.70
2023-03-26T09:16:20.876Z,15.51
2023-03-26T09:19:42.609Z,15.25
2023-03-26T09:22:59.169Z,15.46
2023-03-26T09:25:51.988Z,15.67
2023-03-26T09:29:06.003Z,15.73
2023-03-26T09:31:58.373Z,15.69
2023-03-26T09:34:32.415Z,15.76
2023-03-26T09:37:27.018Z,15.92
2023-03-26T09:40:10.746Z,15.87
2023-03-26T09:42:45.618Z,15.82
2023-03-26T09:45:55.121Z,15.87
2023-03-26T09:49:10.736Z,16.32
2023-03-26T09:51:51.429Z,15.99
2023-03-26T09:54:48.594Z,16.14
2023-03-26T09:57:30.666Z,16.52
2023-03-26T10:00:19.877Z,16.40
2023-03-26T10:03:09.684Z,16.33
2023-03-26T10:05:52.279Z,16.11
2023-03-26T10:08:32.736Z,15.89
2023-03-26T10:11:06.397Z,15.94
2023-03-26T10:13:52.729Z,16.07
2023-03-26T10:16:33.132Z,16.01
2023-03-26T10:19:21.950Z,16.07
2023-03-26T10:22:04.146Z,16.01
2023-03-26T10:25:06.448Z,15.61
2023-03-26T10:27:44.138Z,15.54
2023-03-26T10:30:37.631Z,15.63
2023-03-26T10:33:18.986Z,15.77
2023-03-26T10:35:57.993Z,15.68
2023-03-26T10:38:37.979Z,15.57
2023-03-26T10:41:11.781Z,15.73
2023-03-26T10:44:12.451Z,15.42
2023-03-26T10:47:15.655Z,15.32
2023-03-26T10:50:05.002Z,15.31
2023-03-26T10:52:39.041Z,15.12
2023-03-26T10:55:15.661Z,14.88
2023-03-26T10:57:50.989Z,15.03
2023-03-26T11:00:25.532Z,14.98
2023-03-26T11:03:13.680Z,15.06
2023-03-26T11:05:55.797Z,15.18
2023-03-26T11:08:32.381Z,15.13
2023-03-26T11:11:24.097Z,15.25
2023-03-26T11:14:02.139Z,15.65
2023-03-26T11:16:45.798Z,15.61
2023-03-26T11:19:24.718Z,15.92
2023-03-26T11:22:03.992Z,15.85
2023-03-26T11:25:08.328Z,16.09
2023-03-26T11:27:52.567Z,16.10
2023-03-26T11:30:31.616Z,16.15
2023-03-26T11:33:05.013Z,16.33
2023-03-26T11:35:42.618Z,16.48
2023-03-26T11:38:20.107Z,15.87
2023-03-26T11:40:52.345Z,15.31
2023-03-26T11:43:27.340Z,15.17
2023-03-26T11:45:58.115Z,15.31
2023-03-26T11:48:35.002Z,15.40
2023-03-26T11:51:10.478Z,15.70
2023-03-26T11:53:40.686Z,15.72
2023-03-26T11:56:18.626Z,15.78
2023-03-26T11:58:54.396Z,16.15
2023-03-26T12:01:30.512Z,16.04
2023-03-26T12:04:04.761Z,15.88
2023-03-26T12:06:34.706Z,15.81
2023-03-26T12:09:03.981Z,15.58
2023-03-26T12:11:35.597Z,15.76
2023-03-26T12:14:06.450Z,15.76
2023-03-26T12:16:36.108Z,15.89
2023-03-26T12:19:08.245Z,15.95
2023-03-26T12:21:47.755Z,15.79
2023-03-26T12:24:37.640Z,15.65
2023-03-26T12:27:23.168Z,15.70
2023-03-26T12:30:00.678Z,15.66
2023-03-26T12:32:45.788Z,15.84
2023-03-26T12:35:19.684Z,15.77
2023-03-26T12:37:49.652Z,15.70
2023-03-26T12:40:36.008Z,15.60
2023-03-26T12:44:54.027Z,15.75
2023-03-26T12:47:54.567Z,15.62
2023-03-26T12:48:47.511Z,15.57
2023-03-26T12:51:23.334Z,15.53
2023-03-26T12:54:04.891Z,15.71
2023-03-26T12:56:42.977Z,15.91
2023-03-26T12:59:26.043Z,15.95
2023-03-26T13:02:02.939Z,15.91
2023-03-26T13:05:06.330Z,15.84
2023-03-26T13:07:50.863Z,15.83
2023-03-26T13:10:39.651Z,15.69
2023-03-26T13:13:52.879Z,15.72
2023-03-26T13:16:28.505Z,15.84
2023-03-26T13:19:01.307Z,15.63
2023-03-26T13:21:39.213Z,15.81
2023-03-26T13:24:16.738Z,15.71
2023-03-26T13:26:59.414Z,15.71
2023-03-26T13:29:38.239Z,15.58
2023-03-26T13:32:14.612Z,15.40
2023-03-26T13:34:57.198Z,15.45
2023-03-26T13:37:32.353Z,15.54
2023-03-26T13:40:11.878Z,15.54
2023-03-26T13:42:52.458Z,15.53
2023-03-26T13:45:35.094Z,15.48
2023-03-26T13:48:06.001Z,15.41
2023-03-26T13:50:40.107Z,15.14
2023-03-26T13:53:14.946Z,14.82
2023-03-26T13:55:47.906Z,14.50
2023-03-26T13:58:24.836Z,14.35
2023-03-26T14:00:59.558Z,14.32
2023-03-26T14:03:37.022Z,13.84
2023-03-26T14:06:12.880Z,13.87
2023-03-26T14:08:49.221Z,13.76
2023-03-26T14:11:22.099Z,13.70
2023-03-26T14:13:58.639Z,13.66
2023-03-26T14:16:30.989Z,13.56
2023-03-26T14:19:15.157Z,13.48
2023-03-26T14:22:09.630Z,13.32
2023-03-26T14:25:17.089Z,13.44
2023-03-26T14:28:07.380Z,13.46
2023-03-26T14:31:04.208Z,13.75
2023-03-26T14:33:57.541Z,13.71
2023-03-26T14:36:51.038Z,13.52
2023-03-26T14:39:33.135Z,13.63
2023-03-26T14:42:09.636Z,13.42
2023-03-26T14:45:08.298Z,13.22
2023-03-26T14:47:44.702Z,13.21
2023-03-26T14:50:51.413Z,13.00
2023-03-26T14:53:30.389Z,13.01
2023-03-26T14:56:31.447Z,12.91
2023-03-26T14:59:45.817Z,12.77
2023-03-26T15:02:55.732Z,12.68
2023-03-26T15:06:06.533Z,12.76
2023-03-26T15:09:13.902Z,12.62
2023-03-26T15:11:52.990Z,12.47
2023-03-26T15:15:04.383Z,12.30
2023-03-26T15:18:08.926Z,12.37
2023-03-26T15:21:19.759Z,12.26
2023-03-26T15:24:19.564Z,12.21
2023-03-26T15:27:29.456Z,12.25
2023-03-26T15:30:34.179Z,12.20
2023-03-26T15:33:50.787Z,11.97
2023-03-26T15:36:53.324Z,11.86
2023-03-26T15:39:59.245Z,11.76
2023-03-26T15:42:38.512Z,11.61
2023-03-26T15:45:36.413Z,11.42
2023-03-26T15:48:34.353Z,11.34
2023-03-26T15:51:29.785Z,11.17
2023-03-26T15:54:05.926Z,10.84
2023-03-26T15:56:56.673Z,10.66
2023-03-26T15:59:37.482Z,10.55
2023-03-26T16:02:22.852Z,10.35
2023-03-26T16:04:55.415Z,10.16
2023-03-26T16:07:49.936Z,10.04
2023-03-26T16:10:28.330Z,10.00
2023-03-26T16:13:30.264Z,9.80
2023-03-26T16:16:18.235Z,9.54
2023-03-26T16:18:49.139Z,9.43
2023-03-26T16:21:55.838Z,9.37
2023-03-26T16:24:30.752Z,9.34
2023-03-26T16:27:35.036Z,9.25
2023-03-26T16:30:13.204Z,9.08
2023-03-26T16:32:45.557Z,9.14
2023-03-26T16:35:46.737Z,9.24
2023-03-26T16:38:18.469Z,9.32
2023-03-26T16:41:01.064Z,9.35
2023-03-26T16:43:56.745Z,9.29
2023-03-26T16:46:36.505Z,9.32
2023-03-26T16:49:17.004Z,9.24
2023-03-26T16:52:07.546Z,9.12
2023-03-26T16:54:48.142Z,8.99
2023-03-26T16:57:28.123Z,8.94
2023-03-26T17:00:29.238Z,8.95
2023-03-26T17:03:08.129Z,8.89
2023-03-26T17:05:39.337Z,8.89
2023-03-26T17:08:19.245Z,8.82
2023-03-26T17:11:18.331Z,8.80
2023-03-26T17:14:01.180Z,8.78
2023-03-26T17:16:35.974Z,8.77
2023-03-26T17:19:14.042Z,8.75
2023-03-26T17:21:51.888Z,8.73
2023-03-26T17:24:31.040Z,8.72
2023-03-26T17:27:08.615Z,8.65
2023-03-26T17:29:58.198Z,8.47
2023-03-26T17:32:47.339Z,8.44
2023-03-26T17:35:17.014Z,8.39
2023-03-26T17:37:48.118Z,8.25
2023-03-26T17:40:54.561Z,8.32
2023-03-26T17:43:43.780Z,8.37
2023-03-26T17:46:33.324Z,8.40
2023-03-26T17:49:06.031Z,8.36
2023-03-26T17:51:48.280Z,8.25
2023-03-26T17:54:24.156Z,8.20
2023-03-26T17:56:56.357Z,8.21
2023-03-26T17:59:28.559Z,8.19
2023-03-26T18:02:01.262Z,8.15
2023-03-26T18:04:35.841Z,8.11
2023-03-26T18:07:51.281Z,8.09
2023-03-26T18:10:35.232Z,8.21
2023-03-26T18:13:30.833Z,8.19
2023-03-26T18:16:12.573Z,8.26
2023-03-26T18:18:49.096Z,8.26
2023-03-26T18:21:24.554Z,8.26
2023-03-26T18:23:53.827Z,8.24
2023-03-26T18:26:34.688Z,8.21
2023-03-26T18:29:22.060Z,8.24
2023-03-26T18:31:55.545Z,8.22
2023-03-26T18:34:26.080Z,8.21
2023-03-26T18:37:14.977Z,8.14
2023-03-26T18:39:43.796Z,8.13
2023-03-26T18:42:24.081Z,8.26
2023-03-26T18:44:59.580Z,8.37
2023-03-26T18:47:30.797Z,8.46
2023-03-26T18:50:00.961Z,8.52
2023-03-26T18:52:32.914Z,8.47
2023-03-26T18:55:03.872Z,8.36
2023-03-26T18:57:32.550Z,8.30
2023-03-26T19:00:19.228Z,8.28
2023-03-26T19:02:50.223Z,8.26
2023-03-26T19:05:20.303Z,8.39
2023-03-26T19:07:49.750Z,8.38
2023-03-26T19:10:22.198Z,8.36
2023-03-26T19:12:57.279Z,8.36
2023-03-26T19:15:28.502Z,8.38
2023-03-26T19:18:03.978Z,8.45
2023-03-26T19:20:40.647Z,8.51
2023-03-26T19:23:12.369Z,8.40
2023-03-26T19:25:44.850Z,8.40
2023-03-26T19:28:19.795Z,8.43
2023-03-26T19:30:55.474Z,8.50
2023-03-26T19:33:24.897Z,8.57
2023-03-26T19:36:01.719Z,8.60
2023-03-26T19:38:38.221Z,8.65
2023-03-26T19:41:06.871Z,8.69
2023-03-26T19:43:35.155Z,8.77
2023-03-26T19:46:05.140Z,8.86
2023-03-26T19:48:45.810Z,9.01
2023-03-26T19:51:21.378Z,9.02
2023-03-26T19:53:54.395Z,8.91
2023-03-26T19:56:23.620Z,8.92
2023-03-26T19:58:52.202Z,8.93
2023-03-26T20:01:24.414Z,8.87
2023-03-26T20:03:55.349Z,8.89
2023-03-26T20:06:33.902Z,8.92
2023-03-26T20:09:04.243Z,9.00
2023-03-26T20:11:36.689Z,8.96
2023-03-26T20:14:13.342Z,8.98
2023-03-26T20:16:45.482Z,9.04
2023-03-26T20:19:15.208Z,8.96
2023-03-26T20:21:44.911Z,8.89
2023-03-26T20:24:15.168Z,8.69
2023-03-26T20:26:44.024Z,8.51
2023-03-26T20:29:13.004Z,8.41
2023-03-26T20:31:43.465Z,8.31
2023-03-26T20:34:17.684Z,8.17
2023-03-26T20:36:46.948Z,8.30
2023-03-26T20:39:15.567Z,8.29
2023-03-26T20:41:48.623Z,8.12
2023-03-26T20:44:19.109Z,8.11
2023-03-26T20:46:50.847Z,8.14
2023-03-26T20:49:22.195Z,8.07
2023-03-26T20:51:50.602Z,8.02
2023-03-26T20:54:23.273Z,8.07
2023-03-26T20:56:52.576Z,7.83
2023-03-26T20:59:23.036Z,7.78
2023-03-26T21:01:54.572Z,7.73
2023-03-26T21:04:23.221Z,7.78
2023-03-26T21:06:53.373Z,7.61
2023-03-26T21:09:25.334Z,7.52
2023-03-26T21:12:48.251Z,7.40
2023-03-26T21:15:23.523Z,7.24
2023-03-26T21:17:55.100Z,7.19
2023-03-26T21:20:28.043Z,7.15
2023-03-26T21:23:06.324Z,7.01
2023-03-26T21:25:42.845Z,6.98
2023-03-26T21:28:32.005Z,7.03
2023-03-26T21:31:05.259Z,7.10
2023-03-26T21:33:35.299Z,7.10
2023-03-26T21:36:04.871Z,7.12
2023-03-26T21:38:34.554Z,6.99
2023-03-26T21:41:04.197Z,6.94
2023-03-26T21:43:34.138Z,6.96
2023-03-26T21:46:05.366Z,6.97
2023-03-26T21:48:37.041Z,6.94
2023-03-26T21:51:06.683Z,6.94
2023-03-26T21:54:29.808Z,6.95
2023-03-26T21:57:40.177Z,6.95
2023-03-26T22:00:15.678Z,6.91
2023-03-26T22:03:04.928Z,6.89
2023-03-26T22:05:42.142Z,6.90
2023-03-26T22:08:22.132Z,6.86
2023-03-26T22:10:50.788Z,6.87
2023-03-26T22:13:19.419Z,6.78
2023-03-26T22:15:48.091Z,6.81
2023-03-26T22:18:19.870Z,6.71
2023-03-26T22:20:50.203Z,6.62
2023-03-26T22:23:18.720Z,6.63
2023-03-26T22:25:47.831Z,6.65
2023-03-26T22:28:18.738Z,6.68
2023-03-26T22:30:47.921Z,6.66
2023-03-26T22:33:18.001Z,6.68
2023-03-26T22:35:47.883Z,6.72
2023-03-26T22:38:19.639Z,6.77
2023-03-26T22:40:56.292Z,6.78
2023-03-26T22:43:24.901Z,6.79
2023-03-26T22:45:54.852Z,6.82
2023-03-26T22:48:23.990Z,6.87
2023-03-26T22:50:59.808Z,6.90
2023-03-26T22:53:30.138Z,6.89
2023-03-26T22:55:59.114Z,6.83
2023-03-26T22:58:28.688Z,6.55
2023-03-26T23:01:06.053Z,6.42
2023-03-26T23:03:36.966Z,6.29
2023-03-26T23:06:08.341Z,6.25
2023-03-26T23:08:38.644Z,6.08
2023-03-26T23:11:11.102Z,5.94
2023-03-26T23:13:39.786Z,5.89
2023-03-26T23:16:10.598Z,5.87
2023-03-26T23:18:39.567Z,5.89
2023-03-26T23:21:27.098Z,5.93
2023-03-26T23:23:56.799Z,5.93
2023-03-26T23:26:26.214Z,5.94
2023-03-26T23:28:54.558Z,5.97
2023-03-26T23:31:25.429Z,5.94
2023-03-26T23:33:54.300Z,5.88
2023-03-26T23:36:23.799Z,5.82
2023-03-26T23:38:53.708Z,5.83
2023-03-26T23:41:25.407Z,5.80
2023-03-26T23:43:55.801Z,5.72
2023-03-26T23:46:30.485Z,5.64
2023-03-26T23:49:00.093Z,5.51
2023-03-26T23:51:30.284Z,5.39
2023-03-26T23:53:58.856Z,5.32
2023-03-26T23:56:29.882Z,5.31
2023-03-26T23:58:59.257Z,5.34
